Terminal Aerodrome Forecast
Issued by NWS Wilmington, OH

Current Version | Previous Version | Graphics & Text | Print | Product List | Glossary On
Versions: 1 2 3 4 5 6 7 8 9 10 11 12 13 14 15 16 17 18 19 20 21 22 23 24 25 26
280
FTUS41 KILN 281046 AAA
TAFCMH
TAF AMD
KCMH 281046Z 2811/2906 10003KT P6SM BKN027 OVC140
     FM281300 14004KT P6SM BKN200
     FM281800 14008KT P6SM BKN180
     FM290100 12007KT P6SM BKN080
     FM290500 15008KT P6SM OVC045=

USA.gov is the U.S. government's official web portal to all federal, state and local government web resources and services.